Time;durP1;ratioP1;P1;durP2;ratioP2;P2;SDS_P1;SDS_P2;PMS_P1;PMS_P2;Temp;Humidity;BMP_temperature;BMP_pressure;BME280_temperature;BME280_humidity;BME280_pressure;Samples;Min_cycle;Max_cycle;Signal;HPM_P1;HPM_P2
2021/01/13 00:00:36;;;;;;;;;;;4.90;99.90;;;;;;4735990;30;19927;-72
2021/01/13 00:03:01;;;;;;;;;;;5.00;99.90;;;;;;4735084;30;20064;-72
2021/01/13 00:05:27;;;;;;;;;;;5.20;99.90;;;;;;4735663;30;19977;-72
2021/01/13 00:07:53;;;;;;;;;;;5.20;99.90;;;;;;4735623;30;19923;-72
2021/01/13 00:10:19;;;;;;;;;;;5.20;99.90;;;;;;4735588;30;20410;-72
2021/01/13 00:12:44;;;;;;;;;;;5.20;99.90;;;;;;4727502;30;20069;-72
2021/01/13 00:15:10;;;;;;;;;;;5.10;99.90;;;;;;4718542;30;19972;-72
2021/01/13 00:17:36;;;;;;;;;;;5.20;99.90;;;;;;4718011;30;19940;-72
2021/01/13 00:20:03;;;;;;;;;;;5.20;99.90;;;;;;4729321;30;19933;-72
2021/01/13 00:22:29;;;;;;;;;;;5.10;99.90;;;;;;4735267;30;19980;-72
2021/01/13 00:24:55;;;;;;;;;;;5.20;99.90;;;;;;4735247;30;19923;-72
2021/01/13 00:27:21;;;;;;;;;;;5.20;99.90;;;;;;4735277;30;20006;-72
2021/01/13 00:29:50;;;;;;;;;;;5.20;99.90;;;;;;4725720;30;20364;-72
2021/01/13 00:32:16;;;;;;;;;;;5.20;99.90;;;;;;4717632;30;20283;-72
2021/01/13 00:34:42;;;;;;;;;;;5.20;99.90;;;;;;4718097;30;19927;-72
2021/01/13 00:37:08;;;;;;;;;;;5.20;99.90;;;;;;4717665;30;19927;-72
2021/01/13 00:39:34;;;;;;;;;;;5.20;99.90;;;;;;4724581;30;19967;-72
2021/01/13 00:42:00;;;;;;;;;;;5.10;99.90;;;;;;4735135;30;19929;-72
2021/01/13 00:44:26;;;;;;;;;;;5.20;99.90;;;;;;4735005;30;19929;-72
2021/01/13 00:46:51;;;;;;;;;;;5.20;99.90;;;;;;4734960;30;20295;-72
2021/01/13 00:49:17;;;;;;;;;;;5.20;99.90;;;;;;4729543;30;19927;-72
2021/01/13 00:51:43;;;;;;;;;;;5.20;99.90;;;;;;4717748;30;19958;-72
2021/01/13 00:54:09;;;;;;;;;;;5.20;99.90;;;;;;4717273;30;19949;-72
2021/01/13 00:56:39;;;;;;;;;;;5.20;99.90;;;;;;4717540;30;19922;-72
2021/01/13 00:59:05;;;;;;;;;;;5.20;99.90;;;;;;4720297;30;19922;-72
2021/01/13 01:01:30;;;;;;;;;;;5.40;99.90;;;;;;4734668;30;20475;-72
2021/01/13 01:03:57;;;;;;;;;;;5.30;99.90;;;;;;4734345;30;19923;-72
2021/01/13 01:06:23;;;;;;;;;;;5.40;99.90;;;;;;4733990;30;20445;-72
2021/01/13 01:08:49;;;;;;;;;;;5.30;99.90;;;;;;4717336;30;20010;-72
2021/01/13 01:11:18;;;;;;;;;;;5.30;99.90;;;;;;4717178;30;20480;-72
2021/01/13 01:13:44;;;;;;;;;;;5.50;99.90;;;;;;4717484;30;19930;-72
2021/01/13 01:16:10;;;;;;;;;;;5.30;99.90;;;;;;4716991;30;19923;-72
2021/01/13 01:18:35;;;;;;;;;;;5.30;99.90;;;;;;4731434;30;19922;-72
2021/01/13 01:21:01;;;;;;;;;;;5.40;99.90;;;;;;4734203;30;19931;-72
2021/01/13 01:23:27;;;;;;;;;;;5.40;99.90;;;;;;4734409;30;20366;-72
2021/01/13 01:25:52;;;;;;;;;;;5.40;99.90;;;;;;4732871;30;20291;-72
2021/01/13 01:28:18;;;;;;;;;;;5.40;99.90;;;;;;4734568;30;19929;-72
2021/01/13 01:30:43;;;;;;;;;;;5.30;99.90;;;;;;4734879;30;20408;-72
2021/01/13 01:33:09;;;;;;;;;;;5.40;99.90;;;;;;4734315;30;19992;-72
2021/01/13 01:35:35;;;;;;;;;;;5.30;99.90;;;;;;4729197;30;20014;-72
2021/01/13 01:38:00;;;;;;;;;;;5.30;99.90;;;;;;4716807;30;19923;-72
2021/01/13 01:40:26;;;;;;;;;;;5.40;99.90;;;;;;4716845;30;19933;-73
2021/01/13 01:42:53;;;;;;;;;;;5.30;99.90;;;;;;4716746;30;19926;-72
2021/01/13 01:45:23;;;;;;;;;;;5.40;99.90;;;;;;4719025;30;19923;-72
2021/01/13 01:47:58;;;;;;;;;;;5.50;99.90;;;;;;4734561;30;19980;-72
2021/01/13 01:50:25;;;;;;;;;;;5.60;99.90;;;;;;4733858;30;19923;-73
2021/01/13 01:52:55;;;;;;;;;;;5.60;99.90;;;;;;4733987;30;19923;-72
2021/01/13 01:55:23;;;;;;;;;;;5.70;99.90;;;;;;4716510;30;19962;-72
2021/01/13 02:00:53;;;;;;;;;;;5.50;99.90;;;;;;4716414;30;20403;-72
2021/01/13 02:03:21;;;;;;;;;;;5.60;99.90;;;;;;4718963;30;20315;-72
2021/01/13 02:05:47;;;;;;;;;;;5.60;99.90;;;;;;4734220;30;19929;-72
2021/01/13 02:08:20;;;;;;;;;;;5.80;99.90;;;;;;4733820;30;19953;-72
2021/01/13 02:10:49;;;;;;;;;;;5.70;99.90;;;;;;4734402;30;20379;-72
2021/01/13 02:13:15;;;;;;;;;;;5.80;99.90;;;;;;4735698;30;19919;-72
2021/01/13 02:15:42;;;;;;;;;;;5.80;99.90;;;;;;4720110;30;20013;-72
2021/01/13 02:18:09;;;;;;;;;;;5.80;99.90;;;;;;4718752;30;19945;-72
2021/01/13 02:20:38;;;;;;;;;;;5.80;99.90;;;;;;4719707;30;19974;-72
2021/01/13 02:23:05;;;;;;;;;;;5.70;99.90;;;;;;4719857;30;20031;-72
2021/01/13 02:25:40;;;;;;;;;;;5.70;99.90;;;;;;4735675;30;20088;-72
2021/01/13 02:28:06;;;;;;;;;;;5.70;99.90;;;;;;4737374;30;20013;-72
2021/01/13 02:30:40;;;;;;;;;;;5.90;99.90;;;;;;4737461;30;20022;-72
2021/01/13 02:33:32;;;;;;;;;;;6.00;99.90;;;;;;4726392;30;19965;-72
2021/01/13 02:36:16;;;;;;;;;;;6.10;99.90;;;;;;4717443;30;19934;-72
2021/01/13 02:38:42;;;;;;;;;;;6.10;99.90;;;;;;4719944;30;20302;-72
2021/01/13 02:41:14;;;;;;;;;;;6.00;99.90;;;;;;4719925;30;19997;-72
2021/01/13 02:43:49;;;;;;;;;;;6.00;99.90;;;;;;4719740;30;19929;-72
2021/01/13 02:46:15;;;;;;;;;;;6.20;99.90;;;;;;4719493;30;19930;-72
2021/01/13 02:48:41;;;;;;;;;;;6.20;99.90;;;;;;4719402;30;19923;-72
2021/01/13 02:51:15;;;;;;;;;;;6.20;99.90;;;;;;4736793;30;19922;-72
2021/01/13 02:53:49;;;;;;;;;;;6.20;99.90;;;;;;4737040;30;19922;-72
2021/01/13 02:56:26;;;;;;;;;;;6.30;99.90;;;;;;4736943;30;19929;-72
2021/01/13 02:59:00;;;;;;;;;;;6.20;99.90;;;;;;4736978;30;19922;-72
2021/01/13 03:01:25;;;;;;;;;;;6.20;99.90;;;;;;4736837;30;19927;-72
2021/01/13 03:03:51;;;;;;;;;;;6.20;99.90;;;;;;4737293;30;19929;-72
2021/01/13 03:06:17;;;;;;;;;;;6.30;99.90;;;;;;4736538;30;20042;-72
2021/01/13 03:08:52;;;;;;;;;;;6.30;99.90;;;;;;4735991;30;19947;-72
2021/01/13 03:11:19;;;;;;;;;;;6.20;99.90;;;;;;4736583;30;19926;-72
2021/01/13 03:13:45;;;;;;;;;;;6.20;99.90;;;;;;4736365;30;19926;-72
2021/01/13 03:16:14;;;;;;;;;;;6.30;99.90;;;;;;4736515;30;20056;-72
2021/01/13 03:19:01;;;;;;;;;;;6.10;99.90;;;;;;4725036;30;19980;-72
2021/01/13 03:21:31;;;;;;;;;;;6.20;99.90;;;;;;4718874;30;20008;-72
2021/01/13 03:23:56;;;;;;;;;;;6.20;99.90;;;;;;4718699;30;19923;-72
2021/01/13 03:26:24;;;;;;;;;;;6.20;99.90;;;;;;4719255;30;19930;-72
2021/01/13 03:28:52;;;;;;;;;;;6.40;99.90;;;;;;4730696;30;20018;-72
2021/01/13 03:31:22;;;;;;;;;;;6.40;99.90;;;;;;4736229;30;19984;-72
2021/01/13 03:33:57;;;;;;;;;;;6.20;99.90;;;;;;4736179;30;19934;-72
2021/01/13 03:36:52;;;;;;;;;;;6.40;99.90;;;;;;4730040;30;19923;-72
2021/01/13 03:39:21;;;;;;;;;;;6.30;99.90;;;;;;4718654;30;20520;-72
2021/01/13 03:41:52;;;;;;;;;;;6.40;99.90;;;;;;4718770;30;20021;-72
2021/01/13 03:44:25;;;;;;;;;;;6.40;99.90;;;;;;4718655;30;19933;-72
2021/01/13 03:46:52;;;;;;;;;;;6.40;99.90;;;;;;4719739;30;19953;-72
2021/01/13 03:49:20;;;;;;;;;;;6.50;99.90;;;;;;4718355;30;19923;-72
2021/01/13 03:52:00;;;;;;;;;;;6.30;99.90;;;;;;4718430;30;20315;-72
2021/01/13 03:54:27;;;;;;;;;;;6.40;99.90;;;;;;4718997;30;19930;-72
2021/01/13 03:57:00;;;;;;;;;;;6.30;99.90;;;;;;4721866;30;19930;-72
2021/01/13 03:59:50;;;;;;;;;;;6.30;99.90;;;;;;4736154;30;19954;-72
2021/01/13 04:02:17;;;;;;;;;;;6.20;99.90;;;;;;4735708;30;20387;-72
2021/01/13 04:05:02;;;;;;;;;;;6.20;99.90;;;;;;4735637;30;19922;-72
2021/01/13 04:07:35;;;;;;;;;;;6.30;99.90;;;;;;4718280;30;19931;-72
2021/01/13 04:10:02;;;;;;;;;;;6.20;99.90;;;;;;4718234;30;19931;-72
2021/01/13 04:12:32;;;;;;;;;;;6.10;99.90;;;;;;4718288;30;20005;-72
2021/01/13 04:14:58;;;;;;;;;;;6.20;99.90;;;;;;4718165;30;20305;-72
2021/01/13 04:17:27;;;;;;;;;;;6.10;99.90;;;;;;4732336;30;19922;-72
2021/01/13 04:19:53;;;;;;;;;;;6.10;99.90;;;;;;4735744;30;19933;-72
2021/01/13 04:22:25;;;;;;;;;;;6.30;99.90;;;;;;4735303;30;19939;-72
2021/01/13 04:24:51;;;;;;;;;;;6.30;99.90;;;;;;4735408;30;19930;-72
2021/01/13 04:27:18;;;;;;;;;;;6.30;99.90;;;;;;4720709;30;20352;-72
2021/01/13 04:29:44;;;;;;;;;;;6.20;99.90;;;;;;4717821;30;19923;-72
2021/01/13 04:32:11;;;;;;;;;;;6.20;99.90;;;;;;4717784;30;20013;-72
2021/01/13 04:34:37;;;;;;;;;;;6.30;99.90;;;;;;4717110;30;20009;-72
2021/01/13 04:37:04;;;;;;;;;;;6.30;99.90;;;;;;4729283;30;20030;-72
2021/01/13 04:39:30;;;;;;;;;;;6.30;99.90;;;;;;4735205;30;19922;-72
2021/01/13 04:42:08;;;;;;;;;;;6.30;99.90;;;;;;4735685;30;20288;-72
2021/01/13 04:44:35;;;;;;;;;;;6.20;99.90;;;;;;4728692;30;19923;-72
2021/01/13 04:47:03;;;;;;;;;;;6.20;99.90;;;;;;4717301;30;19930;-72
2021/01/13 04:49:31;;;;;;;;;;;6.30;99.90;;;;;;4717532;30;19946;-72
2021/01/13 04:52:02;;;;;;;;;;;6.40;99.90;;;;;;4717925;30;19953;-71
2021/01/13 04:54:30;;;;;;;;;;;6.40;99.90;;;;;;4721179;30;20396;-71
2021/01/13 04:57:16;;;;;;;;;;;6.40;99.90;;;;;;4733574;30;20291;-72
2021/01/13 05:00:01;;;;;;;;;;;6.50;99.90;;;;;;4734623;30;19926;-72
2021/01/13 05:02:49;;;;;;;;;;;6.50;99.90;;;;;;4735292;30;20384;-72
2021/01/13 05:05:21;;;;;;;;;;;6.40;99.90;;;;;;4725569;30;20308;-72
2021/01/13 05:07:57;;;;;;;;;;;6.50;99.90;;;;;;4716300;30;19930;-72
2021/01/13 05:10:23;;;;;;;;;;;6.60;99.90;;;;;;4716112;30;20376;-72
2021/01/13 05:12:56;;;;;;;;;;;6.50;99.90;;;;;;4716214;30;19929;-72
2021/01/13 05:15:25;;;;;;;;;;;6.40;99.90;;;;;;4726257;30;19927;-72
2021/01/13 05:17:58;;;;;;;;;;;6.40;99.90;;;;;;4734506;30;19939;-72
2021/01/13 05:20:25;;;;;;;;;;;6.40;99.90;;;;;;4734293;30;20025;-72
2021/01/13 05:22:52;;;;;;;;;;;6.50;99.90;;;;;;4734328;30;19923;-72
2021/01/13 05:25:32;;;;;;;;;;;6.60;99.90;;;;;;4725686;30;20038;-72
2021/01/13 05:28:05;;;;;;;;;;;6.60;99.90;;;;;;4717310;30;19953;-72
2021/01/13 05:30:44;;;;;;;;;;;6.60;99.90;;;;;;4717307;30;19923;-72
2021/01/13 05:33:10;;;;;;;;;;;6.50;99.90;;;;;;4716687;30;20030;-72
2021/01/13 05:35:37;;;;;;;;;;;6.40;99.90;;;;;;4726763;30;19950;-71
2021/01/13 05:38:12;;;;;;;;;;;6.40;99.90;;;;;;4734138;30;19997;-71
2021/01/13 05:40:41;;;;;;;;;;;6.40;99.90;;;;;;4733812;30;19966;-71
2021/01/13 05:43:07;;;;;;;;;;;6.30;99.90;;;;;;4734163;30;19929;-72
2021/01/13 05:45:37;;;;;;;;;;;6.40;99.90;;;;;;4723972;30;20005;-72
2021/01/13 05:48:11;;;;;;;;;;;6.40;99.90;;;;;;4716444;30;19930;-71
2021/01/13 05:50:37;;;;;;;;;;;6.50;99.90;;;;;;4716462;30;20467;-72
2021/01/13 05:53:06;;;;;;;;;;;6.40;99.90;;;;;;4717031;30;20014;-72
2021/01/13 05:55:32;;;;;;;;;;;6.50;99.90;;;;;;4725955;30;19926;-72
2021/01/13 05:58:02;;;;;;;;;;;6.50;99.90;;;;;;4734032;30;19927;-72
2021/01/13 06:00:29;;;;;;;;;;;6.50;99.90;;;;;;4729530;30;19927;-72
2021/01/13 06:03:01;;;;;;;;;;;6.50;99.90;;;;;;4716549;30;20005;-72
2021/01/13 06:05:28;;;;;;;;;;;6.50;99.90;;;;;;4724595;30;19918;-72
2021/01/13 06:07:55;;;;;;;;;;;6.40;99.90;;;;;;4733891;30;19930;-71
2021/01/13 06:10:24;;;;;;;;;;;6.40;99.90;;;;;;4733986;30;19952;-72
2021/01/13 06:12:52;;;;;;;;;;;6.50;99.90;;;;;;4732676;30;19927;-72
2021/01/13 06:15:24;;;;;;;;;;;6.50;99.90;;;;;;4731926;30;19949;-71
2021/01/13 06:17:51;;;;;;;;;;;6.50;99.90;;;;;;4732649;30;19923;-71
2021/01/13 06:20:21;;;;;;;;;;;6.40;99.90;;;;;;4732925;30;19926;-71
2021/01/13 06:22:48;;;;;;;;;;;6.40;99.90;;;;;;4733809;30;20009;-71
2021/01/13 06:25:19;;;;;;;;;;;6.30;99.90;;;;;;4732977;30;19919;-71
2021/01/13 06:27:57;;;;;;;;;;;6.30;99.90;;;;;;4733864;30;19923;-71
2021/01/13 06:30:30;;;;;;;;;;;6.30;99.90;;;;;;4733853;30;20317;-72
2021/01/13 06:33:02;;;;;;;;;;;6.40;99.90;;;;;;4733715;30;19926;-72
2021/01/13 06:35:42;;;;;;;;;;;6.30;99.90;;;;;;4726144;30;19923;-73
2021/01/13 06:38:14;;;;;;;;;;;6.30;99.90;;;;;;4716276;30;19926;-71
2021/01/13 06:40:41;;;;;;;;;;;6.20;99.90;;;;;;4716171;30;20013;-71
2021/01/13 06:43:13;;;;;;;;;;;6.20;99.90;;;;;;4717894;30;19931;-71
2021/01/13 06:45:39;;;;;;;;;;;6.30;99.90;;;;;;4733675;30;19965;-71
2021/01/13 06:48:05;;;;;;;;;;;6.30;99.90;;;;;;4734043;30;19989;-71
2021/01/13 06:50:40;;;;;;;;;;;6.40;99.90;;;;;;4733411;30;19984;-71
2021/01/13 06:53:06;;;;;;;;;;;6.40;99.90;;;;;;4721508;30;19958;-71
2021/01/13 06:55:32;;;;;;;;;;;6.40;99.90;;;;;;4734021;30;19966;-71
2021/01/13 06:58:07;;;;;;;;;;;6.50;99.90;;;;;;4734670;30;19926;-71
2021/01/13 07:00:33;;;;;;;;;;;6.50;99.90;;;;;;4737155;30;19926;-71
2021/01/13 07:03:17;;;;;;;;;;;6.40;99.90;;;;;;4723486;30;20006;-71
2021/01/13 07:05:43;;;;;;;;;;;6.40;99.90;;;;;;4718995;30;19958;-71
2021/01/13 07:08:09;;;;;;;;;;;6.40;99.90;;;;;;4719252;30;19929;-71
2021/01/13 07:10:36;;;;;;;;;;;6.40;99.90;;;;;;4719563;30;19949;-71
2021/01/13 07:13:03;;;;;;;;;;;6.40;99.90;;;;;;4730077;30;19930;-71
2021/01/13 07:15:29;;;;;;;;;;;6.40;99.90;;;;;;4736540;30;19938;-71
2021/01/13 07:17:55;;;;;;;;;;;6.40;99.90;;;;;;4736481;30;19922;-71
2021/01/13 07:20:21;;;;;;;;;;;6.40;99.90;;;;;;4732535;30;19927;-71
2021/01/13 07:22:46;;;;;;;;;;;6.40;99.90;;;;;;4718980;30;19930;-71
2021/01/13 07:25:13;;;;;;;;;;;6.40;99.90;;;;;;4718931;30;20299;-71
2021/01/13 07:27:39;;;;;;;;;;;6.40;99.90;;;;;;4719031;30;20013;-71
2021/01/13 07:30:07;;;;;;;;;;;6.30;99.90;;;;;;4719869;30;19923;-71
2021/01/13 07:32:36;;;;;;;;;;;6.30;99.90;;;;;;4735899;30;19922;-71
2021/01/13 07:35:06;;;;;;;;;;;6.40;99.90;;;;;;4735210;30;19962;-71
2021/01/13 07:37:36;;;;;;;;;;;6.40;99.90;;;;;;4735183;30;19930;-69
2021/01/13 07:40:05;;;;;;;;;;;6.40;99.90;;;;;;4734912;30;19981;-71
2021/01/13 07:42:35;;;;;;;;;;;6.40;99.90;;;;;;4717740;30;19974;-71
2021/01/13 07:45:04;;;;;;;;;;;6.40;99.90;;;;;;4718318;30;19923;-71
2021/01/13 07:47:34;;;;;;;;;;;6.40;99.90;;;;;;4718597;30;20380;-71
2021/01/13 07:50:03;;;;;;;;;;;6.40;99.90;;;;;;4730033;30;20406;-71
2021/01/13 07:52:35;;;;;;;;;;;6.50;99.90;;;;;;4735663;30;20463;-71
2021/01/13 07:55:02;;;;;;;;;;;6.60;99.90;;;;;;4735116;30;19926;-70
2021/01/13 07:57:36;;;;;;;;;;;6.60;99.90;;;;;;4730867;30;20395;-70
2021/01/13 08:00:04;;;;;;;;;;;6.60;99.90;;;;;;4718494;30;19933;-72
2021/01/13 08:02:39;;;;;;;;;;;6.60;99.90;;;;;;4718136;30;19959;-70
2021/01/13 08:05:17;;;;;;;;;;;6.70;99.90;;;;;;4718069;30;20376;-73
2021/01/13 08:07:43;;;;;;;;;;;6.70;99.90;;;;;;4723647;30;20001;-72
2021/01/13 08:10:10;;;;;;;;;;;6.80;99.90;;;;;;4720233;30;19926;-71
2021/01/13 08:12:54;;;;;;;;;;;6.90;99.90;;;;;;4730767;30;19926;-71
2021/01/13 08:15:22;;;;;;;;;;;6.90;99.90;;;;;;4733790;30;19923;-73
2021/01/13 08:17:55;;;;;;;;;;;7.00;99.90;;;;;;4716919;30;20000;-71
2021/01/13 08:20:27;;;;;;;;;;;7.00;99.90;;;;;;4709755;30;19993;-72
2021/01/13 08:22:59;;;;;;;;;;;7.10;99.90;;;;;;4713715;30;19931;-73
2021/01/13 08:25:28;;;;;;;;;;;7.00;99.90;;;;;;4716910;30;19958;-72
2021/01/13 08:27:57;;;;;;;;;;;7.10;99.90;;;;;;4714140;30;19922;-72
2021/01/13 08:30:30;;;;;;;;;;;7.10;99.90;;;;;;4739725;30;19933;-72
2021/01/13 08:32:56;;;;;;;;;;;7.10;99.90;;;;;;4713080;30;19927;-71
2021/01/13 08:35:35;;;;;;;;;;;7.20;99.90;;;;;;4714199;30;20018;-72
2021/01/13 08:38:08;;;;;;;;;;;7.20;99.90;;;;;;4721424;30;20321;-72
2021/01/13 08:40:35;;;;;;;;;;;7.30;99.90;;;;;;4715321;30;19931;-70
2021/01/13 08:43:09;;;;;;;;;;;7.50;99.90;;;;;;4720062;30;19976;-72
2021/01/13 08:45:39;;;;;;;;;;;7.50;99.90;;;;;;4717759;30;20021;-71
2021/01/13 08:48:08;;;;;;;;;;;7.50;99.90;;;;;;4727432;30;19930;-72
2021/01/13 08:50:35;;;;;;;;;;;7.40;99.90;;;;;;4714796;30;20400;-72
2021/01/13 08:53:04;;;;;;;;;;;7.40;99.90;;;;;;4714780;30;19965;-71
2021/01/13 08:55:30;;;;;;;;;;;7.40;99.90;;;;;;4714579;30;19931;-71
2021/01/13 08:58:03;;;;;;;;;;;7.40;99.90;;;;;;4728663;30;19930;-72
2021/01/13 09:00:29;;;;;;;;;;;7.40;99.90;;;;;;4714088;30;20403;-71
2021/01/13 09:03:21;;;;;;;;;;;7.40;99.90;;;;;;4717856;30;19923;-72
2021/01/13 09:05:46;;;;;;;;;;;7.30;99.90;;;;;;4727874;30;20016;-71
2021/01/13 09:08:13;;;;;;;;;;;7.40;99.90;;;;;;4733130;30;20501;-72
2021/01/13 09:10:47;;;;;;;;;;;7.30;99.90;;;;;;4732851;30;20009;-72
2021/01/13 09:13:25;;;;;;;;;;;7.40;99.90;;;;;;4739700;30;19939;-71
2021/01/13 09:15:53;;;;;;;;;;;7.40;99.90;;;;;;4718129;30;20380;-71
2021/01/13 09:18:21;;;;;;;;;;;7.40;99.90;;;;;;4714836;30;19981;-71
2021/01/13 09:20:49;;;;;;;;;;;7.30;99.90;;;;;;4713805;30;20025;-72
2021/01/13 09:23:21;;;;;;;;;;;7.30;99.90;;;;;;4727198;30;19922;-71
2021/01/13 09:25:50;;;;;;;;;;;7.30;99.90;;;;;;4716359;30;19939;-72
2021/01/13 09:28:18;;;;;;;;;;;7.30;99.90;;;;;;4715211;30;20018;-70
2021/01/13 09:30:44;;;;;;;;;;;7.20;99.90;;;;;;4715334;30;19919;-72
2021/01/13 09:33:12;;;;;;;;;;;7.20;99.90;;;;;;4714371;30;19927;-71
2021/01/13 09:35:39;;;;;;;;;;;7.20;99.90;;;;;;4723291;30;20596;-71
2021/01/13 09:38:09;;;;;;;;;;;7.20;99.90;;;;;;4731760;30;19980;-71
2021/01/13 09:40:54;;;;;;;;;;;7.20;99.90;;;;;;4732379;30;19930;-70
2021/01/13 09:43:24;;;;;;;;;;;7.30;99.90;;;;;;4731202;30;19923;-71
2021/01/13 09:45:54;;;;;;;;;;;7.30;99.90;;;;;;4731285;30;19926;-71
2021/01/13 09:48:20;;;;;;;;;;;7.30;99.90;;;;;;4731642;30;19923;-71
2021/01/13 09:50:56;;;;;;;;;;;7.30;99.90;;;;;;4714637;30;20000;-72
2021/01/13 09:53:59;;;;;;;;;;;7.30;99.90;;;;;;4722371;30;19926;-75
2021/01/13 09:56:26;;;;;;;;;;;7.20;99.90;;;;;;4711462;30;19926;-72
2021/01/13 09:58:52;;;;;;;;;;;7.30;99.90;;;;;;4714193;30;20002;-73
2021/01/13 10:01:19;;;;;;;;;;;7.30;99.90;;;;;;4714136;30;20053;-71
2021/01/13 10:03:46;;;;;;;;;;;7.40;99.90;;;;;;4715149;30;19931;-72
2021/01/13 10:06:12;;;;;;;;;;;7.40;99.90;;;;;;4730896;30;19926;-71
2021/01/13 10:08:38;;;;;;;;;;;7.60;99.90;;;;;;4729573;30;20268;-70
2021/01/13 10:11:04;;;;;;;;;;;7.60;99.90;;;;;;4733230;30;20291;-71
2021/01/13 10:13:30;;;;;;;;;;;7.60;99.90;;;;;;4732600;30;19922;-71
2021/01/13 10:15:59;;;;;;;;;;;7.60;99.90;;;;;;4731865;30;20025;-73
2021/01/13 10:18:26;;;;;;;;;;;7.70;99.90;;;;;;4721145;30;19923;-73
2021/01/13 10:20:58;;;;;;;;;;;7.60;99.90;;;;;;4714300;30;20368;-75
2021/01/13 10:23:26;;;;;;;;;;;7.70;99.90;;;;;;4723195;30;19930;-74
2021/01/13 10:26:18;;;;;;;;;;;7.70;99.90;;;;;;4730617;30;19926;-73
2021/01/13 10:28:44;;;;;;;;;;;7.70;99.90;;;;;;4718936;30;19923;-74
2021/01/13 10:31:19;;;;;;;;;;;7.80;99.90;;;;;;4719488;30;19981;-72
2021/01/13 10:33:45;;;;;;;;;;;7.80;99.90;;;;;;4730700;30;19923;-73
2021/01/13 10:36:29;;;;;;;;;;;7.80;99.90;;;;;;4737094;30;19922;-73
2021/01/13 10:38:56;;;;;;;;;;;7.80;99.90;;;;;;4736851;30;19929;-73
2021/01/13 10:41:32;;;;;;;;;;;7.80;99.90;;;;;;4725176;30;19927;-72
2021/01/13 10:44:02;;;;;;;;;;;7.80;99.90;;;;;;4727906;30;19954;-71
2021/01/13 10:46:39;;;;;;;;;;;7.80;99.90;;;;;;4735492;30;19974;-69
2021/01/13 10:49:08;;;;;;;;;;;7.80;99.90;;;;;;4722523;30;19923;-72
2021/01/13 10:51:37;;;;;;;;;;;7.90;99.90;;;;;;4717591;30;19973;-71
2021/01/13 10:54:08;;;;;;;;;;;7.90;99.90;;;;;;4722149;30;20016;-72
2021/01/13 10:56:35;;;;;;;;;;;7.90;99.90;;;;;;4724466;30;19930;-72
2021/01/13 10:59:03;;;;;;;;;;;8.00;99.90;;;;;;4717323;30;19923;-72
2021/01/13 11:01:29;;;;;;;;;;;8.00;99.90;;;;;;4732736;30;19926;-71
2021/01/13 11:03:55;;;;;;;;;;;8.10;99.90;;;;;;4734834;30;19976;-72
2021/01/13 11:06:24;;;;;;;;;;;8.00;99.90;;;;;;4735877;30;19923;-72
2021/01/13 11:08:52;;;;;;;;;;;8.00;99.90;;;;;;4732799;30;20375;-70
2021/01/13 11:11:21;;;;;;;;;;;8.00;99.90;;;;;;4731652;30;19957;-70
2021/01/13 11:13:47;;;;;;;;;;;8.00;99.90;;;;;;4735558;30;19933;-72
2021/01/13 11:16:13;;;;;;;;;;;8.00;99.90;;;;;;4734530;30;19922;-72
2021/01/13 11:18:40;;;;;;;;;;;8.00;99.90;;;;;;4733478;30;20367;-72
2021/01/13 11:21:09;;;;;;;;;;;8.00;99.90;;;;;;4734347;30;19933;-72
2021/01/13 11:23:47;;;;;;;;;;;8.10;99.90;;;;;;4735034;30;19923;-72
2021/01/13 11:26:12;;;;;;;;;;;8.10;99.90;;;;;;4735380;30;20640;-73
2021/01/13 11:28:39;;;;;;;;;;;8.20;99.90;;;;;;4725263;30;20396;-72
2021/01/13 11:31:05;;;;;;;;;;;8.30;99.90;;;;;;4734193;30;19926;-72
2021/01/13 11:33:31;;;;;;;;;;;8.40;99.90;;;;;;4734618;30;20303;-72
2021/01/13 11:35:57;;;;;;;;;;;8.40;99.90;;;;;;4734259;30;20017;-73
2021/01/13 11:38:25;;;;;;;;;;;8.40;99.90;;;;;;4733863;30;19923;-72
2021/01/13 11:40:54;;;;;;;;;;;8.40;99.90;;;;;;4734690;30;19934;-72
2021/01/13 11:43:37;;;;;;;;;;;8.40;99.90;;;;;;4734601;30;20448;-72
2021/01/13 11:46:10;;;;;;;;;;;8.50;99.90;;;;;;4733010;30;20147;-72
2021/01/13 11:48:50;;;;;;;;;;;8.50;99.90;;;;;;4732973;30;19923;-71
2021/01/13 11:51:16;;;;;;;;;;;8.40;99.90;;;;;;4734535;30;19930;-72
2021/01/13 11:53:44;;;;;;;;;;;8.40;99.90;;;;;;4735039;30;19937;-72
2021/01/13 11:56:09;;;;;;;;;;;8.50;99.90;;;;;;4735237;30;19918;-71
2021/01/13 11:58:35;;;;;;;;;;;8.40;99.90;;;;;;4735389;30;19976;-72
2021/01/13 12:01:01;;;;;;;;;;;8.30;99.90;;;;;;4735358;30;19957;-72
2021/01/13 12:03:26;;;;;;;;;;;8.20;99.90;;;;;;4735037;30;20299;-73
2021/01/13 12:05:52;;;;;;;;;;;8.10;99.90;;;;;;4732855;30;19930;-70
2021/01/13 12:08:20;;;;;;;;;;;8.20;99.90;;;;;;4735304;30;20384;-71
2021/01/13 12:10:55;;;;;;;;;;;8.20;99.90;;;;;;4732634;30;19969;-70
2021/01/13 12:13:21;;;;;;;;;;;8.20;99.90;;;;;;4732373;30;20375;-70
2021/01/13 12:15:47;;;;;;;;;;;8.30;99.90;;;;;;4733415;30;19967;-70
2021/01/13 12:18:17;;;;;;;;;;;8.20;99.90;;;;;;4734584;30;19927;-70
2021/01/13 12:20:43;;;;;;;;;;;8.30;99.90;;;;;;4733953;30;20019;-70
2021/01/13 12:23:18;;;;;;;;;;;8.30;99.90;;;;;;4734490;30;19957;-70
2021/01/13 12:25:44;;;;;;;;;;;8.30;99.90;;;;;;4734226;30;20030;-71
2021/01/13 12:28:10;;;;;;;;;;;8.30;99.90;;;;;;4734810;30;19945;-70
2021/01/13 12:30:36;;;;;;;;;;;8.30;99.90;;;;;;4735058;30;19922;-70
2021/01/13 12:33:02;;;;;;;;;;;8.30;99.90;;;;;;4735392;30;19919;-70
2021/01/13 12:35:28;;;;;;;;;;;8.20;99.90;;;;;;4734807;30;19970;-70
2021/01/13 12:37:54;;;;;;;;;;;8.40;99.90;;;;;;4735635;30;19923;-70
2021/01/13 12:40:30;;;;;;;;;;;8.40;99.90;;;;;;4734643;30;19926;-70
2021/01/13 12:42:56;;;;;;;;;;;8.50;99.90;;;;;;4735163;30;19922;-70
2021/01/13 12:45:21;;;;;;;;;;;8.60;99.90;;;;;;4735007;30;19981;-70
2021/01/13 12:47:54;;;;;;;;;;;8.60;99.90;;;;;;4734866;30;19927;-70
2021/01/13 12:50:20;;;;;;;;;;;8.60;99.90;;;;;;4734495;30;20421;-70
2021/01/13 12:52:46;;;;;;;;;;;8.60;99.90;;;;;;4734768;30;19973;-70
2021/01/13 12:55:11;;;;;;;;;;;8.60;99.90;;;;;;4734302;30;19923;-70
2021/01/13 12:57:37;;;;;;;;;;;8.60;99.90;;;;;;4734946;30;19930;-70
2021/01/13 13:00:03;;;;;;;;;;;8.60;99.90;;;;;;4734191;30;19934;-70
2021/01/13 13:02:29;;;;;;;;;;;8.60;99.90;;;;;;4734626;30;19922;-71
2021/01/13 13:04:54;;;;;;;;;;;8.70;99.90;;;;;;4734769;30;20005;-70
2021/01/13 13:07:20;;;;;;;;;;;8.60;99.90;;;;;;4734655;30;19923;-70
2021/01/13 13:09:48;;;;;;;;;;;8.50;99.90;;;;;;4732838;30;20325;-70
2021/01/13 13:12:14;;;;;;;;;;;8.40;99.90;;;;;;4734378;30;19930;-71
2021/01/13 13:14:40;;;;;;;;;;;8.40;99.90;;;;;;4734444;30;19923;-70
2021/01/13 13:17:08;;;;;;;;;;;8.50;99.90;;;;;;4734504;30;19957;-71
2021/01/13 13:19:33;;;;;;;;;;;8.50;99.90;;;;;;4733949;30;19948;-70
2021/01/13 13:21:59;;;;;;;;;;;8.60;99.90;;;;;;4734530;30;19927;-71
2021/01/13 13:24:27;;;;;;;;;;;8.60;99.90;;;;;;4734692;30;19922;-70
2021/01/13 13:26:56;;;;;;;;;;;8.70;99.90;;;;;;4734393;30;19930;-71
2021/01/13 13:29:22;;;;;;;;;;;8.70;99.90;;;;;;4723487;30;20576;-71
2021/01/13 13:31:49;;;;;;;;;;;8.70;99.90;;;;;;4717513;30;20013;-71
2021/01/13 13:34:14;;;;;;;;;;;8.70;99.90;;;;;;4722083;30;19923;-68
2021/01/13 13:36:40;;;;;;;;;;;8.60;99.90;;;;;;4724078;30;19935;-70
2021/01/13 13:39:06;;;;;;;;;;;8.60;99.90;;;;;;4728514;30;19952;-69
2021/01/13 13:41:32;;;;;;;;;;;8.60;99.90;;;;;;4727376;30;19933;-69
2021/01/13 13:43:58;;;;;;;;;;;8.70;99.90;;;;;;4720040;30;19931;-69
2021/01/13 13:46:24;;;;;;;;;;;8.70;99.90;;;;;;4729333;30;19930;-69
2021/01/13 13:48:50;;;;;;;;;;;8.60;99.90;;;;;;4719253;30;19957;-69
2021/01/13 13:51:16;;;;;;;;;;;8.70;99.90;;;;;;4720179;30;19980;-69
2021/01/13 13:53:42;;;;;;;;;;;8.70;99.90;;;;;;4717043;30;20299;-69
2021/01/13 13:56:07;;;;;;;;;;;8.70;99.90;;;;;;4717784;30;19930;-69
2021/01/13 13:58:34;;;;;;;;;;;8.70;99.90;;;;;;4730010;30;20360;-69
2021/01/13 14:01:00;;;;;;;;;;;8.70;99.90;;;;;;4729725;30;19956;-69
2021/01/13 14:03:26;;;;;;;;;;;8.80;99.90;;;;;;4719097;30;20009;-69
2021/01/13 14:05:53;;;;;;;;;;;8.80;99.90;;;;;;4728789;30;19938;-69
2021/01/13 14:08:19;;;;;;;;;;;8.80;99.90;;;;;;4720836;30;19934;-69
2021/01/13 14:10:45;;;;;;;;;;;8.80;99.90;;;;;;4727757;30;19922;-70
2021/01/13 14:13:11;;;;;;;;;;;8.90;99.90;;;;;;4717292;30;19927;-69
2021/01/13 14:15:37;;;;;;;;;;;8.90;99.90;;;;;;4713495;30;20369;-69
2021/01/13 14:18:02;;;;;;;;;;;8.90;99.90;;;;;;4715923;30;19927;-71
2021/01/13 14:20:29;;;;;;;;;;;8.80;99.90;;;;;;4731101;30;19937;-71
2021/01/13 14:22:55;;;;;;;;;;;8.90;99.90;;;;;;4733195;30;20001;-71
2021/01/13 14:25:20;;;;;;;;;;;8.90;99.90;;;;;;4733725;30;19953;-72
2021/01/13 14:27:47;;;;;;;;;;;8.90;99.90;;;;;;4733721;30;20372;-71
2021/01/13 14:30:13;;;;;;;;;;;8.90;99.90;;;;;;4731406;30;20013;-71
2021/01/13 14:32:39;;;;;;;;;;;8.90;99.90;;;;;;4733424;30;19956;-74
2021/01/13 14:35:05;;;;;;;;;;;8.80;99.90;;;;;;4732014;30;20263;-74
2021/01/13 14:37:37;;;;;;;;;;;8.80;99.90;;;;;;4732442;30;19967;-72
2021/01/13 14:40:04;;;;;;;;;;;8.90;99.90;;;;;;4733025;30;19944;-72
2021/01/13 14:42:35;;;;;;;;;;;8.90;99.90;;;;;;4732715;30;19922;-72
2021/01/13 14:45:01;;;;;;;;;;;8.90;99.90;;;;;;4733892;30;19940;-74